Time;durP1;ratioP1;P1;durP2;ratioP2;P2;SDS_P1;SDS_P2;PMS_P1;PMS_P2;Temp;Humidity;BMP_temperature;BMP_pressure;BME280_temperature;BME280_humidity;BME280_pressure;Samples;Min_cycle;Max_cycle;Signal;HPM_P1;HPM_P2
2022/10/18 00:00:43;;;;;;;65.45;44.22;;;13.90;99.90;;;;;;2071402;28;20032;-70
2022/10/18 00:01:44;;;;;;;72.47;45.25;;;14.00;99.90;;;;;;2088653;28;20040;-70
2022/10/18 00:02:45;;;;;;;63.45;42.75;;;14.00;99.90;;;;;;2088823;28;20079;-71
2022/10/18 00:03:45;;;;;;;60.88;40.83;;;14.00;99.90;;;;;;2088575;28;20079;-71
2022/10/18 00:04:46;;;;;;;61.05;40.42;;;13.90;99.90;;;;;;2088510;28;20028;-70
2022/10/18 00:05:48;;;;;;;58.90;39.85;;;14.00;99.90;;;;;;2088669;28;20021;-69
2022/10/18 00:06:49;;;;;;;58.05;39.50;;;14.00;99.90;;;;;;2088589;28;20364;-69
2022/10/18 00:07:49;;;;;;;58.78;39.80;;;14.00;99.90;;;;;;2088592;28;20112;-70
2022/10/18 00:08:50;;;;;;;57.85;38.47;;;13.90;99.90;;;;;;2088468;28;20033;-70
2022/10/18 00:09:51;;;;;;;54.60;37.92;;;13.90;99.90;;;;;;2088337;28;20067;-69
2022/10/18 00:10:52;;;;;;;53.95;37.13;;;13.90;99.90;;;;;;2071979;28;20815;-70
2022/10/18 00:11:54;;;;;;;55.42;37.33;;;13.90;99.90;;;;;;2072232;28;20030;-69
2022/10/18 00:12:54;;;;;;;55.33;37.08;;;14.00;99.90;;;;;;2080271;28;20104;-71
2022/10/18 00:13:56;;;;;;;50.45;35.80;;;13.90;99.90;;;;;;2089343;28;20348;-69
2022/10/18 00:14:57;;;;;;;53.03;36.38;;;13.90;99.90;;;;;;2089224;28;20052;-69
2022/10/18 00:16:00;;;;;;;50.42;35.50;;;13.90;99.90;;;;;;2088520;28;20033;-70
2022/10/18 00:17:01;;;;;;;51.90;35.22;;;13.90;99.90;;;;;;2088431;28;20060;-71
2022/10/18 00:18:02;;;;;;;52.13;35.80;;;13.90;99.90;;;;;;2088703;28;20033;-71
2022/10/18 00:19:03;;;;;;;49.60;34.95;;;13.90;99.90;;;;;;2088874;28;20044;-71
2022/10/18 00:20:04;;;;;;;52.28;35.67;;;13.90;99.90;;;;;;2079927;28;20053;-69
2022/10/18 00:21:12;;;;;;;50.35;35.22;;;13.90;99.90;;;;;;2080109;28;20030;-70
2022/10/18 00:22:12;;;;;;;51.88;35.22;;;13.90;99.90;;;;;;2080926;28;20033;-70
2022/10/18 00:23:13;;;;;;;52.55;35.88;;;13.80;99.90;;;;;;2080204;28;20357;-71
2022/10/18 00:24:14;;;;;;;52.85;35.38;;;13.90;99.90;;;;;;2072279;28;20022;-70
2022/10/18 00:25:14;;;;;;;50.97;35.88;;;13.90;99.90;;;;;;2072026;28;20031;-69
2022/10/18 00:26:24;;;;;;;51.30;35.60;;;13.90;99.90;;;;;;2072249;28;20133;-70
2022/10/18 00:27:24;;;;;;;53.53;35.92;;;13.90;99.90;;;;;;2080491;28;20021;-70
2022/10/18 00:28:25;;;;;;;51.50;35.65;;;13.80;99.90;;;;;;2082000;28;20022;-70
2022/10/18 00:29:26;;;;;;;51.67;35.70;;;13.80;99.90;;;;;;2088343;28;20036;-70
2022/10/18 00:30:26;;;;;;;54.15;36.45;;;13.80;99.90;;;;;;2088139;28;20036;-69
2022/10/18 00:31:30;;;;;;;52.47;35.88;;;13.80;99.90;;;;;;2088892;28;20044;-71
2022/10/18 00:32:35;;;;;;;56.80;38.08;;;13.80;99.90;;;;;;2088399;28;20105;-70
2022/10/18 00:33:36;;;;;;;55.42;37.45;;;13.80;99.90;;;;;;2080208;28;20076;-69
2022/10/18 00:34:56;;;;;;;57.42;37.95;;;13.80;99.90;;;;;;2063849;28;20030;-70
2022/10/18 00:35:59;;;;;;;57.33;39.05;;;13.80;99.90;;;;;;2076943;28;20510;-71
2022/10/18 00:37:00;;;;;;;56.17;37.42;;;13.80;99.90;;;;;;2080311;28;20480;-71
2022/10/18 00:38:00;;;;;;;57.63;38.75;;;13.80;99.90;;;;;;2088052;28;20059;-71
2022/10/18 00:39:04;;;;;;;59.75;38.08;;;13.80;99.90;;;;;;2088855;28;20502;-70
2022/10/18 00:40:05;;;;;;;56.33;37.97;;;13.80;99.90;;;;;;2088688;28;20028;-70
2022/10/18 00:41:09;;;;;;;56.38;38.90;;;13.80;99.90;;;;;;2079860;28;20522;-70
2022/10/18 00:42:21;;;;;;;53.97;36.67;;;13.80;99.90;;;;;;2064681;28;20026;-72
2022/10/18 00:43:22;;;;;;;56.97;37.22;;;13.80;99.90;;;;;;2081542;28;20021;-69
2022/10/18 00:44:25;;;;;;;51.90;36.35;;;13.80;99.90;;;;;;2088238;28;20033;-70
2022/10/18 00:45:26;;;;;;;54.20;37.17;;;13.80;99.90;;;;;;2088848;28;20493;-70
2022/10/18 00:46:30;;;;;;;52.28;36.08;;;13.80;99.90;;;;;;2089003;28;20024;-70
2022/10/18 00:47:33;;;;;;;50.55;35.65;;;13.80;99.90;;;;;;2088606;28;20090;-70
2022/10/18 00:48:34;;;;;;;52.13;36.20;;;13.80;99.90;;;;;;2088300;28;20142;-70
2022/10/18 00:49:39;;;;;;;51.60;36.03;;;13.70;99.90;;;;;;2088391;28;20407;-69
2022/10/18 00:50:40;;;;;;;52.83;36.22;;;13.80;99.90;;;;;;2088027;28;20581;-69
2022/10/18 00:52:09;;;;;;;53.08;35.95;;;13.80;99.90;;;;;;2079975;28;20029;-69
2022/10/18 00:53:15;;;;;;;55.65;37.60;;;13.70;99.90;;;;;;2088662;28;20429;-70
2022/10/18 00:54:18;;;;;;;56.10;37.22;;;13.70;99.90;;;;;;2088245;28;20033;-70
2022/10/18 00:55:19;;;;;;;57.30;37.95;;;13.70;99.90;;;;;;2088402;28;20059;-70
2022/10/18 00:56:20;;;;;;;53.35;37.33;;;13.70;99.90;;;;;;2088334;28;20482;-70
2022/10/18 00:57:21;;;;;;;53.67;36.67;;;13.70;99.90;;;;;;2089915;28;20127;-70
2022/10/18 00:58:22;;;;;;;51.63;35.67;;;13.70;99.90;;;;;;2081560;28;20037;-70
2022/10/18 00:59:23;;;;;;;54.03;37.25;;;13.70;99.90;;;;;;2081565;28;20029;-71
2022/10/18 01:00:24;;;;;;;54.63;37.28;;;13.70;99.90;;;;;;2088957;28;20025;-70
2022/10/18 01:01:25;;;;;;;55.60;37.65;;;13.70;99.90;;;;;;2080053;28;20033;-70
2022/10/18 01:02:27;;;;;;;55.55;37.40;;;13.70;99.90;;;;;;2080017;28;20013;-70
2022/10/18 01:03:27;;;;;;;56.47;37.85;;;13.70;99.90;;;;;;2080102;28;20491;-69
2022/10/18 01:04:28;;;;;;;56.30;38.17;;;13.70;99.90;;;;;;2079969;28;20041;-69
2022/10/18 01:05:29;;;;;;;55.80;37.58;;;13.70;99.90;;;;;;2079998;28;20022;-71
2022/10/18 01:06:30;;;;;;;54.28;35.92;;;13.70;99.90;;;;;;2088163;28;20028;-70
2022/10/18 01:08:08;;;;;;;52.45;35.22;;;13.70;99.90;;;;;;2079878;28;20171;-70
2022/10/18 01:09:41;;;;;;;52.75;35.83;;;13.70;99.90;;;;;;2085456;28;20033;-69
2022/10/18 01:11:04;;;;;;;51.63;35.63;;;13.60;99.90;;;;;;2086504;28;20032;-69
2022/10/18 01:12:22;;;;;;;53.10;35.85;;;13.60;99.90;;;;;;2088463;28;20119;-68
2022/10/18 01:13:42;;;;;;;51.63;36.25;;;13.60;99.90;;;;;;2088352;28;20013;-69
2022/10/18 01:15:12;;;;;;;54.22;35.90;;;13.60;99.90;;;;;;2082622;28;20037;-71
2022/10/18 01:16:28;;;;;;;53.13;36.25;;;13.60;99.90;;;;;;2088035;28;20504;-70
2022/10/18 01:18:06;;;;;;;52.20;36.45;;;13.60;99.90;;;;;;2087935;28;20044;-70
2022/10/18 01:19:18;;;;;;;53.25;36.42;;;13.60;99.90;;;;;;2084785;28;20821;-70
2022/10/18 01:20:37;;;;;;;59.85;39.00;;;13.60;99.90;;;;;;2087718;28;20067;-70
2022/10/18 01:21:51;;;;;;;56.85;38.13;;;13.50;99.90;;;;;;2088590;28;20075;-70
2022/10/18 01:23:07;;;;;;;54.05;36.58;;;13.60;99.90;;;;;;2087973;28;20717;-70
2022/10/18 01:24:25;;;;;;;52.78;36.75;;;13.50;99.90;;;;;;2088252;28;20032;-70
2022/10/18 01:25:39;;;;;;;56.05;38.08;;;13.60;99.90;;;;;;2088479;28;20029;-70
2022/10/18 01:27:10;;;;;;;57.50;38.83;;;13.50;99.90;;;;;;2088580;28;20017;-70
2022/10/18 01:28:29;;;;;;;58.33;40.00;;;13.50;99.90;;;;;;2088698;28;20032;-70
2022/10/18 01:30:10;;;;;;;58.25;38.55;;;13.50;99.90;;;;;;2079624;28;20091;-70
2022/10/18 01:31:18;;;;;;;56.45;37.63;;;13.50;99.90;;;;;;2085636;28;20095;-70
2022/10/18 01:32:25;;;;;;;57.97;38.80;;;13.50;99.90;;;;;;2088757;28;20100;-70
2022/10/18 01:33:29;;;;;;;53.85;37.40;;;13.40;99.90;;;;;;2088540;28;20384;-70
2022/10/18 01:34:34;;;;;;;57.08;38.35;;;13.40;99.90;;;;;;2088063;28;20033;-70
2022/10/18 01:35:41;;;;;;;54.10;36.90;;;13.40;99.90;;;;;;2080146;28;20029;-70
2022/10/18 01:36:47;;;;;;;55.40;37.10;;;13.40;99.90;;;;;;2088559;28;20028;-71
2022/10/18 01:37:49;;;;;;;58.45;38.85;;;13.50;99.90;;;;;;2089113;28;20025;-70
2022/10/18 01:38:54;;;;;;;54.10;37.33;;;13.40;99.90;;;;;;2088614;28;20053;-70
2022/10/18 01:39:56;;;;;;;52.78;36.13;;;13.40;99.90;;;;;;2088728;28;20021;-70
2022/10/18 01:40:59;;;;;;;53.30;35.63;;;13.40;99.90;;;;;;2080898;28;20029;-70
2022/10/18 01:42:04;;;;;;;52.65;37.03;;;13.40;99.90;;;;;;2073373;28;20026;-70
2022/10/18 01:43:07;;;;;;;55.50;37.53;;;13.40;99.90;;;;;;2081294;28;20024;-71
2022/10/18 01:44:11;;;;;;;53.72;36.92;;;13.40;99.90;;;;;;2080793;28;20049;-70
2022/10/18 01:45:14;;;;;;;54.28;37.33;;;13.40;99.90;;;;;;2080378;28;20044;-71
2022/10/18 01:46:20;;;;;;;54.55;36.67;;;13.40;99.90;;;;;;2080365;28;20030;-70
2022/10/18 01:47:21;;;;;;;56.70;36.70;;;13.40;99.90;;;;;;2083626;28;20067;-70
2022/10/18 01:48:22;;;;;;;54.78;37.78;;;13.30;99.90;;;;;;2088573;28;20043;-70
2022/10/18 01:49:24;;;;;;;55.08;36.70;;;13.30;99.90;;;;;;2088493;28;20088;-70
2022/10/18 01:50:30;;;;;;;54.95;37.05;;;13.30;99.90;;;;;;2088038;28;20059;-70
2022/10/18 01:51:32;;;;;;;52.00;35.95;;;13.30;99.90;;;;;;2088031;28;20118;-70
2022/10/18 01:52:32;;;;;;;55.25;37.70;;;13.30;99.90;;;;;;2087952;28;20029;-71
2022/10/18 01:53:33;;;;;;;53.10;36.53;;;13.30;99.90;;;;;;2088406;28;20017;-70
2022/10/18 01:54:37;;;;;;;57.85;38.40;;;13.30;99.90;;;;;;2088924;28;20055;-70
2022/10/18 01:55:44;;;;;;;57.22;38.08;;;13.30;99.90;;;;;;2088981;28;20025;-70
2022/10/18 01:56:58;;;;;;;55.13;37.70;;;13.30;99.90;;;;;;2089104;28;20040;-70
2022/10/18 01:58:04;;;;;;;55.65;36.35;;;13.30;99.90;;;;;;2088405;28;20029;-70
2022/10/18 01:59:20;;;;;;;55.30;37.05;;;13.20;99.90;;;;;;2088214;28;20033;-69
2022/10/18 02:00:38;;;;;;;56.25;38.30;;;13.30;99.90;;;;;;2088091;28;20040;-70
2022/10/18 02:02:36;;;;;;;58.15;37.63;;;13.20;99.90;;;;;;2088117;28;20033;-70
2022/10/18 02:03:44;;;;;;;57.35;37.25;;;13.20;99.90;;;;;;2054622;28;20136;-70
2022/10/18 02:05:24;;;;;;;54.03;36.95;;;13.20;99.90;;;;;;2048450;28;20577;-70
2022/10/18 02:06:35;;;;;;;53.42;36.30;;;13.20;99.90;;;;;;2052078;28;20023;-70
2022/10/18 02:07:40;;;;;;;;;;;13.20;99.90;;;;;;2048954;28;20050;-70
2022/10/18 02:08:52;;;;;;;56.00;37.38;;;13.10;99.90;;;;;;2055305;28;20018;-70
2022/10/18 02:10:19;;;;;;;54.67;36.53;;;13.10;99.90;;;;;;2088115;28;20025;-70
2022/10/18 02:11:20;;;;;;;54.67;37.40;;;13.10;99.90;;;;;;2088076;28;20455;-70
2022/10/18 02:12:22;;;;;;;56.53;37.35;;;13.10;99.90;;;;;;2087479;28;20016;-72
2022/10/18 02:13:28;;;;;;;54.33;36.85;;;13.10;99.90;;;;;;2087683;28;20029;-70
2022/10/18 02:14:29;;;;;;;53.92;36.78;;;13.10;99.90;;;;;;2088412;28;20425;-70
2022/10/18 02:15:36;;;;;;;54.60;37.33;;;13.10;99.90;;;;;;2087651;28;20020;-70
2022/10/18 02:16:53;;;;;;;55.88;36.33;;;13.10;99.90;;;;;;2087667;28;20028;-69
2022/10/18 02:17:55;;;;;;;55.70;38.13;;;13.10;99.90;;;;;;2088358;28;20017;-70
2022/10/18 02:19:10;;;;;;;55.72;37.88;;;13.00;99.90;;;;;;2088187;28;20414;-70
2022/10/18 02:20:13;;;;;;;57.92;39.38;;;13.00;99.90;;;;;;2079052;28;20511;-70
2022/10/18 02:21:18;;;;;;;55.97;38.38;;;13.00;99.90;;;;;;2079485;28;20464;-70
2022/10/18 02:22:21;;;;;;;54.47;37.53;;;13.00;99.90;;;;;;2087577;28;20024;-70
2022/10/18 02:23:24;;;;;;;55.58;38.50;;;13.00;99.90;;;;;;2079599;28;20041;-70
2022/10/18 02:24:37;;;;;;;56.88;38.53;;;13.00;99.90;;;;;;2072089;28;20059;-71
2022/10/18 02:25:38;;;;;;;55.70;37.80;;;13.00;99.90;;;;;;2087859;28;20035;-70
2022/10/18 02:26:39;;;;;;;57.28;37.72;;;13.00;99.90;;;;;;2087800;28;20020;-71
2022/10/18 02:27:40;;;;;;;57.35;38.25;;;12.90;99.90;;;;;;2087887;28;20021;-70
2022/10/18 02:28:41;;;;;;;54.90;38.05;;;12.90;99.90;;;;;;2088257;28;20040;-70
2022/10/18 02:29:43;;;;;;;56.72;38.95;;;12.90;99.90;;;;;;2088535;28;20033;-70
2022/10/18 02:31:22;;;;;;;57.83;38.40;;;12.90;99.90;;;;;;2087507;28;20025;-70
2022/10/18 02:32:43;;;;;;;58.20;38.05;;;12.90;99.90;;;;;;2067671;28;20042;-70
2022/10/18 02:34:05;;;;;;;55.75;37.72;;;12.90;99.90;;;;;;2067289;28;20512;-69
2022/10/18 02:35:31;;;;;;;59.40;38.58;;;12.90;99.90;;;;;;2089530;28;20041;-70
2022/10/18 02:36:44;;;;;;;59.15;39.40;;;12.90;99.90;;;;;;2088537;28;20032;-69
2022/10/18 02:37:47;;;;;;;61.65;39.70;;;12.90;99.90;;;;;;2088250;28;20040;-68
2022/10/18 02:38:54;;;;;;;53.88;37.33;;;12.90;99.90;;;;;;2088459;28;20037;-69
2022/10/18 02:39:56;;;;;;;60.72;39.50;;;12.90;99.90;;;;;;2088073;28;20035;-69
2022/10/18 02:40:57;;;;;;;58.58;39.33;;;12.90;99.90;;;;;;2087539;28;20040;-70
2022/10/18 02:41:58;;;;;;;57.90;38.88;;;12.80;99.90;;;;;;2087706;28;20406;-70
2022/10/18 02:42:59;;;;;;;57.13;38.42;;;12.80;99.90;;;;;;2088362;28;20059;-70
2022/10/18 02:43:59;;;;;;;55.65;38.15;;;12.80;99.90;;;;;;2088546;28;20040;-71
2022/10/18 02:45:00;;;;;;;56.80;38.75;;;12.90;99.90;;;;;;2087590;28;20489;-69
2022/10/18 02:46:01;;;;;;;53.63;37.45;;;12.80;99.90;;;;;;2079274;28;20049;-70
2022/10/18 02:47:04;;;;;;;56.35;38.15;;;12.80;99.90;;;;;;2087345;28;20752;-69
2022/10/18 02:48:05;;;;;;;55.55;37.85;;;12.80;99.90;;;;;;2079905;28;20064;-70
2022/10/18 02:49:06;;;;;;;58.17;38.53;;;12.80;99.90;;;;;;2079935;28;20542;-71
2022/10/18 02:50:07;;;;;;;54.40;37.58;;;12.80;99.90;;;;;;2079794;28;20061;-70
2022/10/18 02:51:08;;;;;;;57.95;39.65;;;12.80;99.90;;;;;;2079688;28;20093;-70
2022/10/18 02:52:09;;;;;;;55.75;38.40;;;12.80;99.90;;;;;;2079841;28;20017;-70
2022/10/18 02:53:10;;;;;;;56.97;38.25;;;12.80;99.90;;;;;;2079822;28;20551;-70
2022/10/18 02:54:10;;;;;;;56.42;37.72;;;12.80;99.90;;;;;;2079109;28;20033;-70
2022/10/18 02:55:11;;;;;;;54.78;37.58;;;12.80;99.90;;;;;;2078955;28;20108;-70
2022/10/18 02:56:11;;;;;;;58.20;39.38;;;12.80;99.90;;;;;;2079152;28;20400;-70
2022/10/18 02:57:12;;;;;;;57.35;38.45;;;12.70;99.90;;;;;;2079805;28;20033;-69
2022/10/18 02:58:13;;;;;;;54.70;37.75;;;12.70;99.90;;;;;;2079904;28;20502;-69
2022/10/18 02:59:14;;;;;;;57.72;39.00;;;12.70;99.90;;;;;;2087092;28;20021;-70
2022/10/18 03:00:15;;;;;;;58.22;38.85;;;12.70;99.90;;;;;;2087360;28;20029;-72
2022/10/18 03:01:15;;;;;;;55.40;37.58;;;12.70;99.90;;;;;;2079863;28;20037;-70
2022/10/18 03:02:16;;;;;;;56.28;38.42;;;12.70;99.90;;;;;;2079972;28;20112;-70
2022/10/18 03:03:16;;;;;;;56.13;37.58;;;12.70;99.90;;;;;;2080112;28;20576;-70
2022/10/18 03:04:17;;;;;;;53.10;36.83;;;12.70;99.90;;;;;;2080462;28;20029;-70
2022/10/18 03:05:18;;;;;;;53.33;36.58;;;12.70;99.90;;;;;;2080250;28;20037;-70
2022/10/18 03:06:19;;;;;;;52.75;36.65;;;12.70;99.90;;;;;;2084259;28;20051;-71
2022/10/18 03:07:19;;;;;;;58.42;38.20;;;12.70;99.90;;;;;;2088284;28;20029;-70
2022/10/18 03:08:21;;;;;;;57.45;37.78;;;12.70;99.90;;;;;;2087567;28;20036;-74
2022/10/18 03:09:22;;;;;;;56.88;38.50;;;12.70;99.90;;;;;;2088197;28;20032;-70
2022/10/18 03:10:22;;;;;;;55.55;37.92;;;12.60;99.90;;;;;;2088067;28;20025;-70
2022/10/18 03:11:23;;;;;;;58.45;38.72;;;12.60;99.90;;;;;;2088257;28;20056;-69
2022/10/18 03:12:24;;;;;;;54.80;37.17;;;12.60;99.90;;;;;;2087544;28;20033;-70
2022/10/18 03:13:25;;;;;;;55.90;38.10;;;12.70;99.90;;;;;;2087113;28;20052;-70
2022/10/18 03:14:25;;;;;;;57.25;38.30;;;12.60;99.90;;;;;;2087939;28;20025;-70
2022/10/18 03:15:26;;;;;;;55.03;37.85;;;12.60;99.90;;;;;;2087769;28;20510;-69
2022/10/18 03:16:27;;;;;;;57.38;38.92;;;12.60;99.90;;;;;;2087762;28;20032;-69
2022/10/18 03:17:28;;;;;;;58.40;38.80;;;12.60;99.90;;;;;;2087736;28;20027;-70
2022/10/18 03:18:28;;;;;;;57.58;38.35;;;12.60;99.90;;;;;;2087054;28;20040;-69
2022/10/18 03:19:29;;;;;;;56.85;38.83;;;12.60;99.90;;;;;;2087061;28;20039;-70
2022/10/18 03:20:30;;;;;;;57.35;39.90;;;12.60;99.90;;;;;;2087304;28;20036;-69
2022/10/18 03:21:30;;;;;;;58.95;39.17;;;12.70;99.90;;;;;;2086899;28;20032;-69
2022/10/18 03:22:31;;;;;;;57.17;39.45;;;12.60;99.90;;;;;;2087179;28;20021;-69
2022/10/18 03:23:32;;;;;;;62.53;40.40;;;12.60;99.90;;;;;;2087108;28;20017;-70
2022/10/18 03:24:33;;;;;;;59.63;38.60;;;12.70;99.90;;;;;;2087431;28;20036;-69
2022/10/18 03:25:34;;;;;;;58.28;38.42;;;12.60;99.90;;;;;;2087401;28;20029;-69
2022/10/18 03:26:34;;;;;;;56.60;37.13;;;12.60;99.90;;;;;;2087466;28;20502;-71
2022/10/18 03:27:35;;;;;;;58.20;37.75;;;12.60;99.90;;;;;;2087521;28;20021;-70
2022/10/18 03:28:36;;;;;;;56.45;37.92;;;12.60;99.90;;;;;;2087165;28;20331;-70
2022/10/18 03:29:36;;;;;;;53.58;37.75;;;12.60;99.90;;;;;;2087003;28;20047;-70
2022/10/18 03:30:40;;;;;;;54.15;37.67;;;12.60;99.90;;;;;;2087417;28;20024;-70
2022/10/18 03:31:42;;;;;;;56.38;38.17;;;12.60;99.90;;;;;;2087683;28;20029;-76
2022/10/18 03:32:42;;;;;;;56.10;37.72;;;12.60;99.90;;;;;;2087691;28;20676;-71
2022/10/18 03:33:43;;;;;;;57.33;38.40;;;12.60;99.90;;;;;;2086286;28;20035;-70
2022/10/18 03:34:44;;;;;;;57.95;38.35;;;12.60;99.90;;;;;;2087321;28;20043;-69
2022/10/18 03:35:44;;;;;;;57.67;38.35;;;12.50;99.90;;;;;;2087236;28;20035;-70
2022/10/18 03:36:45;;;;;;;55.17;38.00;;;12.60;99.90;;;;;;2087163;28;20095;-70
2022/10/18 03:37:46;;;;;;;57.45;38.65;;;12.50;99.90;;;;;;2087927;28;20103;-70
2022/10/18 03:38:46;;;;;;;55.80;38.08;;;12.50;99.90;;;;;;2087240;28;20604;-69
2022/10/18 03:39:47;;;;;;;57.60;38.45;;;12.50;99.90;;;;;;2086925;28;20564;-69
2022/10/18 03:40:48;;;;;;;57.05;38.35;;;12.50;99.90;;;;;;2086930;28;20414;-69
2022/10/18 03:41:49;;;;;;;56.15;39.15;;;12.50;99.90;;;;;;2087163;28;20047;-69
2022/10/18 03:42:50;;;;;;;57.83;38.85;;;12.60;99.90;;;;;;2087213;28;20021;-69
2022/10/18 03:43:50;;;;;;;56.08;38.42;;;12.50;99.90;;;;;;2087701;28;20372;-70
2022/10/18 03:44:51;;;;;;;58.72;39.15;;;12.50;99.90;;;;;;2086877;28;20021;-69
2022/10/18 03:45:51;;;;;;;58.47;39.53;;;12.60;99.90;;;;;;2078769;28;20105;-69
2022/10/18 03:46:52;;;;;;;57.30;39.38;;;12.50;99.90;;;;;;2087070;28;20494;-70
2022/10/18 03:47:53;;;;;;;59.47;40.28;;;12.60;99.90;;;;;;2086802;28;20037;-69
2022/10/18 03:48:53;;;;;;;60.42;40.40;;;12.60;99.90;;;;;;2086959;28;20049;-69
2022/10/18 03:49:54;;;;;;;65.97;45.05;;;12.60;99.90;;;;;;2086880;28;20067;-69
2022/10/18 03:50:55;;;;;;;64.70;45.97;;;12.60;99.90;;;;;;2079424;28;20068;-69
2022/10/18 03:51:55;;;;;;;61.53;44.35;;;12.70;99.90;;;;;;2079457;28;20045;-69
2022/10/18 03:52:56;;;;;;;67.47;47.13;;;12.70;99.90;;;;;;2079406;28;20036;-70
2022/10/18 03:53:57;;;;;;;67.75;46.75;;;12.70;99.90;;;;;;2079204;28;20085;-70
2022/10/18 03:54:57;;;;;;;65.18;44.78;;;12.70;99.90;;;;;;2080119;28;20037;-70
2022/10/18 03:55:58;;;;;;;60.15;42.75;;;12.70;99.90;;;;;;2087700;28;20098;-70
2022/10/18 03:56:59;;;;;;;61.47;42.85;;;12.70;99.90;;;;;;2087612;28;20035;-70
2022/10/18 03:57:59;;;;;;;59.97;41.28;;;12.80;99.90;;;;;;2086977;28;20517;-70
2022/10/18 03:59:01;;;;;;;58.53;40.80;;;12.70;99.90;;;;;;2087108;28;20529;-70
2022/10/18 04:00:03;;;;;;;56.83;40.30;;;12.80;99.90;;;;;;2087337;28;20079;-70
2022/10/18 04:01:12;;;;;;;58.55;41.00;;;12.80;99.90;;;;;;2087407;28;20108;-72
2022/10/18 04:02:13;;;;;;;57.53;40.65;;;12.80;99.90;;;;;;2087480;28;20616;-70
2022/10/18 15:16:21;;;;;;;6.93;5.63;;;15.90;99.90;;;;;;2014354;29;20519;-73
2022/10/18 15:17:26;;;;;;;6.25;5.20;;;15.80;99.90;;;;;;2015084;29;20431;-73
2022/10/18 15:18:27;;;;;;;6.55;4.80;;;15.80;99.90;;;;;;2015163;29;20088;-73
2022/10/18 15:19:29;;;;;;;5.57;4.70;;;15.80;99.90;;;;;;2016090;29;20033;-73
2022/10/18 15:20:38;;;;;;;5.35;4.82;;;15.80;99.90;;;;;;2016780;29;20024;-73
2022/10/18 15:21:53;;;;;;;7.05;5.50;;;15.80;99.90;;;;;;2016257;29;20061;-72
2022/10/18 15:23:19;;;;;;;6.85;5.10;;;15.80;99.90;;;;;;2009968;29;20063;-72
2022/10/18 15:24:37;;;;;;;9.02;5.95;;;15.80;99.90;;;;;;2015529;29;20096;-73
2022/10/18 15:25:38;;;;;;;7.85;5.70;;;15.80;99.90;;;;;;2016361;29;20033;-73
2022/10/18 15:26:43;;;;;;;6.57;5.40;;;15.80;99.90;;;;;;2014605;29;20033;-73
2022/10/18 15:27:54;;;;;;;6.53;5.07;;;15.80;99.90;;;;;;2014668;29;20530;-76
2022/10/18 15:29:18;;;;;;;5.78;5.15;;;15.80;99.90;;;;;;2018984;29;20071;-72
2022/10/18 15:30:19;;;;;;;6.03;4.60;;;15.80;99.90;;;;;;2012192;29;20025;-74
2022/10/18 15:31:30;;;;;;;6.15;4.80;;;15.70;99.90;;;;;;2016932;29;20029;-73
2022/10/18 15:32:31;;;;;;;8.30;5.22;;;15.80;99.90;;;;;;2015881;29;20534;-75
2022/10/18 15:33:35;;;;;;;6.50;4.95;;;15.80;99.90;;;;;;2015200;29;20028;-74
2022/10/18 15:34:35;;;;;;;6.05;5.05;;;15.80;99.90;;;;;;2007156;29;20124;-75
2022/10/18 15:35:38;;;;;;;6.70;5.88;;;15.80;99.90;;;;;;2007259;29;20097;-75
2022/10/18 15:36:39;;;;;;;7.25;5.78;;;15.80;99.90;;;;;;2015388;29;20029;-74
2022/10/18 15:37:45;;;;;;;7.63;5.30;;;15.80;99.90;;;;;;2015761;29;20032;-75
2022/10/18 15:38:46;;;;;;;6.53;5.78;;;15.80;99.90;;;;;;2015043;29;20096;-75
2022/10/18 15:39:47;;;;;;;5.93;5.32;;;15.80;99.90;;;;;;2014808;29;20119;-74
2022/10/18 15:40:48;;;;;;;7.28;5.57;;;15.80;99.90;;;;;;2015697;29;20049;-73
2022/10/18 15:41:50;;;;;;;6.30;5.70;;;15.80;99.90;;;;;;2015078;29;20025;-74
2022/10/18 15:42:57;;;;;;;6.82;5.38;;;15.80;99.90;;;;;;2016004;29;20025;-74
2022/10/18 15:44:16;;;;;;;6.47;5.78;;;15.80;99.90;;;;;;2009697;29;20037;-75
2022/10/18 15:45:35;;;;;;;8.32;5.10;;;15.80;99.90;;;;;;2012722;29;20430;-75
2022/10/18 15:46:38;;;;;;;6.65;6.00;;;15.80;99.90;;;;;;2001267;29;20033;-74
2022/10/18 15:47:39;;;;;;;6.13;5.53;;;15.80;99.90;;;;;;2010579;29;20037;-75
2022/10/18 15:48:41;;;;;;;8.60;6.50;;;15.80;99.90;;;;;;2017602;29;20040;-74
2022/10/18 15:49:45;;;;;;;6.45;5.75;;;15.80;99.90;;;;;;2020361;29;20037;-76
2022/10/18 15:50:50;;;;;;;5.43;4.93;;;15.80;99.90;;;;;;2022694;29;20084;-75
2022/10/18 15:52:28;;;;;;;5.70;5.10;;;15.70;99.90;;;;;;2012140;29;20042;-74
2022/10/18 15:53:36;;;;;;;6.57;4.60;;;15.70;99.90;;;;;;2015392;29;20706;-74
2022/10/18 15:54:37;;;;;;;5.97;5.03;;;15.60;99.90;;;;;;2006373;29;20044;-72
2022/10/18 15:55:54;;;;;;;4.95;4.22;;;15.60;99.90;;;;;;2007411;29;20046;-73
2022/10/18 15:56:55;;;;;;;5.15;4.43;;;15.50;99.90;;;;;;2015538;29;20124;-73
2022/10/18 15:58:16;;;;;;;5.28;4.78;;;15.50;99.90;;;;;;2014861;29;20022;-74
2022/10/18 15:59:26;;;;;;;8.82;6.82;;;15.50;99.90;;;;;;2015111;29;20403;-74
2022/10/18 16:00:27;;;;;;;8.55;6.65;;;15.40;99.90;;;;;;2015640;29;20032;-74
2022/10/18 16:01:28;;;;;;;9.10;6.72;;;15.30;99.90;;;;;;2008014;29;20159;-74
2022/10/18 16:02:29;;;;;;;8.23;7.28;;;15.30;99.90;;;;;;2007776;29;20495;-73
2022/10/18 16:03:35;;;;;;;7.65;6.75;;;15.30;99.90;;;;;;2015295;29;20041;-73
2022/10/18 16:04:35;;;;;;;7.32;6.55;;;15.20;99.90;;;;;;2015068;29;20075;-73
2022/10/18 16:05:37;;;;;;;6.78;6.07;;;15.20;99.90;;;;;;2015148;29;20025;-73
2022/10/18 16:06:38;;;;;;;6.57;5.70;;;15.20;99.90;;;;;;2007642;29;20033;-73
2022/10/18 16:07:39;;;;;;;6.70;5.22;;;15.20;99.90;;;;;;2014776;29;20041;-74
2022/10/18 16:08:44;;;;;;;7.25;5.10;;;15.20;99.90;;;;;;2016070;29;20032;-78
2022/10/18 16:09:45;;;;;;;5.80;5.20;;;15.20;99.90;;;;;;2018890;29;20119;-76
2022/10/18 16:10:46;;;;;;;5.63;5.13;;;15.10;99.90;;;;;;2018854;29;20782;-76
2022/10/18 16:11:49;;;;;;;7.45;6.20;;;15.10;99.90;;;;;;2018620;29;20099;-76
2022/10/18 16:12:50;;;;;;;7.35;6.13;;;15.10;99.90;;;;;;2015422;29;20407;-75
2022/10/18 16:13:51;;;;;;;6.72;5.70;;;15.10;99.90;;;;;;2015647;29;20123;-76
2022/10/18 16:14:52;;;;;;;7.97;6.68;;;15.10;99.90;;;;;;2009107;29;20080;-74
2022/10/18 16:15:56;;;;;;;7.72;6.80;;;15.00;99.90;;;;;;2010326;29;20036;-74
2022/10/18 16:17:02;;;;;;;7.60;6.47;;;15.00;99.90;;;;;;2018336;29;20048;-74
2022/10/18 16:18:03;;;;;;;6.88;6.00;;;15.00;99.90;;;;;;2017058;29;20438;-77
2022/10/18 16:19:04;;;;;;;7.00;5.95;;;15.00;99.90;;;;;;2016594;29;20033;-76
2022/10/18 16:20:05;;;;;;;6.78;6.07;;;15.00;99.90;;;;;;2020260;29;20770;-75
2022/10/18 16:21:15;;;;;;;7.25;6.05;;;15.00;99.90;;;;;;2015199;29;20139;-73
2022/10/18 16:22:16;;;;;;;7.38;5.95;;;15.00;99.90;;;;;;2015553;29;20033;-77
2022/10/18 16:23:19;;;;;;;6.35;5.40;;;15.00;99.90;;;;;;2014774;29;20041;-73
2022/10/18 16:24:21;;;;;;;6.60;5.85;;;15.00;99.90;;;;;;2006743;29;20029;-73
2022/10/18 16:25:21;;;;;;;6.82;6.05;;;14.90;99.90;;;;;;2006465;29;20044;-74
2022/10/18 16:26:23;;;;;;;8.68;7.05;;;14.90;99.90;;;;;;2014884;29;20029;-73
2022/10/18 16:27:24;;;;;;;8.00;7.20;;;14.90;99.90;;;;;;2015763;29;20476;-72
2022/10/18 16:28:26;;;;;;;7.88;7.07;;;14.90;99.90;;;;;;2015263;29;20172;-73
2022/10/18 16:29:30;;;;;;;7.90;7.10;;;14.90;99.90;;;;;;2015213;29;20043;-78
2022/10/18 16:30:33;;;;;;;8.27;7.43;;;14.90;99.90;;;;;;2015223;29;20037;-72
2022/10/18 16:31:34;;;;;;;8.38;7.22;;;14.90;99.90;;;;;;2015073;29;20036;-71
2022/10/18 16:32:34;;;;;;;8.05;7.25;;;14.90;99.90;;;;;;2015747;29;20041;-71
2022/10/18 16:33:35;;;;;;;8.02;6.95;;;14.90;99.90;;;;;;2015815;29;20067;-71
2022/10/18 16:34:36;;;;;;;8.93;7.13;;;14.80;99.90;;;;;;2014975;29;20441;-74
2022/10/18 16:35:37;;;;;;;8.23;7.03;;;14.90;99.90;;;;;;2007401;29;20034;-74
2022/10/18 16:36:37;;;;;;;7.55;6.75;;;14.80;99.90;;;;;;2015542;29;20188;-75
2022/10/18 16:37:38;;;;;;;8.90;7.07;;;14.90;99.90;;;;;;2023308;29;20021;-74
2022/10/18 16:38:39;;;;;;;8.40;6.90;;;14.80;99.90;;;;;;2016045;29;20518;-73
2022/10/18 16:39:40;;;;;;;7.15;6.45;;;14.90;99.90;;;;;;2016372;29;20040;-72
2022/10/18 16:40:40;;;;;;;7.88;6.80;;;14.90;99.90;;;;;;2015723;29;20088;-74
2022/10/18 16:41:41;;;;;;;7.97;6.63;;;14.90;99.90;;;;;;2016769;29;20506;-73
2022/10/18 16:42:42;;;;;;;8.55;6.80;;;14.90;99.90;;;;;;2016647;29;20048;-75
2022/10/18 16:43:45;;;;;;;8.13;7.32;;;14.90;99.90;;;;;;2012856;29;20048;-73
2022/10/18 16:44:46;;;;;;;9.05;7.10;;;14.90;99.90;;;;;;2016292;29;20102;-73
2022/10/18 16:45:48;;;;;;;8.45;7.13;;;14.90;99.90;;;;;;2024243;29;20037;-73